Time;durP1;ratioP1;P1;durP2;ratioP2;P2;SDS_P1;SDS_P2;PMS_P1;PMS_P2;Temp;Humidity;BMP_temperature;BMP_pressure;BME280_temperature;BME280_humidity;BME280_pressure;Samples;Min_cycle;Max_cycle;Signal;HPM_P1;HPM_P2
2021/12/30 00:00:24;;;;;;;6.47;1.55;;;14.40;99.90;;;;;;4206814;28;20519;-79
2021/12/30 00:02:29;;;;;;;11.15;1.77;;;14.40;99.90;;;;;;4199942;28;20041;-77
2021/12/30 00:04:31;;;;;;;7.70;1.45;;;14.40;99.90;;;;;;4209204;28;20698;-77
2021/12/30 00:06:41;;;;;;;10.52;1.80;;;14.50;99.90;;;;;;4212041;28;20112;-76
2021/12/30 00:08:43;;;;;;;7.57;1.70;;;14.50;99.90;;;;;;4208841;28;20496;-77
2021/12/30 00:10:46;;;;;;;9.85;2.25;;;14.50;99.90;;;;;;4202763;28;20052;-77
2021/12/30 00:12:50;;;;;;;14.77;2.03;;;14.50;99.90;;;;;;4223095;28;20602;-77
2021/12/30 00:14:52;;;;;;;9.18;1.95;;;14.50;99.90;;;;;;4218584;28;20090;-77
2021/12/30 00:16:54;;;;;;;11.65;2.20;;;14.50;99.90;;;;;;4204788;28;20090;-77
2021/12/30 00:18:56;;;;;;;6.10;1.63;;;14.60;99.90;;;;;;4198713;28;20110;-77
2021/12/30 00:20:58;;;;;;;8.18;1.92;;;14.50;99.90;;;;;;4214412;28;20082;-77
2021/12/30 00:23:06;;;;;;;14.82;2.17;;;14.50;99.90;;;;;;4201304;28;20080;-78
2021/12/30 00:25:09;;;;;;;12.13;2.95;;;14.50;99.90;;;;;;4198527;28;20072;-77
2021/12/30 00:27:11;;;;;;;14.43;2.10;;;14.50;99.90;;;;;;4198337;28;20044;-77
2021/12/30 00:29:13;;;;;;;16.23;2.90;;;14.50;99.90;;;;;;4196659;28;20131;-76
2021/12/30 00:31:16;;;;;;;13.40;2.30;;;14.50;99.90;;;;;;4198029;28;20075;-78
2021/12/30 00:33:19;;;;;;;15.63;2.05;;;14.50;99.90;;;;;;4198180;28;20080;-77
2021/12/30 00:35:25;;;;;;;13.63;1.95;;;14.50;99.90;;;;;;4198722;28;20417;-77
2021/12/30 00:37:27;;;;;;;14.52;2.30;;;14.60;99.90;;;;;;4196355;28;20080;-76
2021/12/30 00:39:29;;;;;;;12.82;2.35;;;14.60;99.90;;;;;;4189815;28;20051;-76
2021/12/30 00:41:31;;;;;;;18.08;2.28;;;14.60;99.90;;;;;;4198730;28;20617;-78
2021/12/30 00:43:34;;;;;;;20.30;3.85;;;14.60;99.90;;;;;;4198512;28;20052;-76
2021/12/30 00:45:37;;;;;;;15.32;2.40;;;14.50;99.90;;;;;;4196541;28;20577;-75
2021/12/30 00:47:39;;;;;;;17.73;2.75;;;14.50;99.90;;;;;;4202663;28;20133;-77
2021/12/30 00:49:42;;;;;;;18.52;2.70;;;14.50;99.90;;;;;;4209595;28;20071;-77
2021/12/30 00:51:45;;;;;;;16.80;3.10;;;14.50;99.90;;;;;;4197704;28;20052;-78
2021/12/30 00:53:48;;;;;;;17.15;2.88;;;14.50;99.90;;;;;;4198115;28;20045;-76
2021/12/30 00:55:50;;;;;;;13.20;2.55;;;14.50;99.90;;;;;;4198007;28;20053;-77
2021/12/30 00:57:52;;;;;;;16.60;2.72;;;14.50;99.90;;;;;;4197445;28;20742;-76
2021/12/30 00:59:54;;;;;;;19.52;2.83;;;14.50;99.90;;;;;;4208185;28;20059;-77
2021/12/30 01:01:55;;;;;;;19.20;4.10;;;14.50;99.90;;;;;;4190500;28;20048;-77
2021/12/30 01:03:58;;;;;;;18.05;3.42;;;14.40;99.90;;;;;;4188934;28;20077;-76
2021/12/30 01:06:01;;;;;;;15.82;3.05;;;14.40;99.90;;;;;;4170656;28;20696;-77
2021/12/30 01:08:05;;;;;;;26.75;3.63;;;14.40;99.90;;;;;;4180916;28;20087;-77
2021/12/30 01:10:10;;;;;;;17.35;4.35;;;14.30;99.90;;;;;;4164651;28;20092;-76
2021/12/30 01:12:12;;;;;;;32.85;4.57;;;14.30;99.90;;;;;;4165917;28;20047;-76
2021/12/30 01:14:21;;;;;;;22.58;3.15;;;14.30;99.90;;;;;;4168890;28;20080;-77
2021/12/30 01:16:24;;;;;;;24.23;3.85;;;14.20;99.90;;;;;;4180998;28;20056;-77
2021/12/30 01:18:56;;;;;;;28.65;4.78;;;14.20;99.90;;;;;;4181391;28;20049;-76
2021/12/30 01:20:59;;;;;;;33.10;4.35;;;14.20;99.90;;;;;;4183871;28;20087;-77
2021/12/30 01:23:00;;;;;;;34.45;5.03;;;14.10;99.90;;;;;;4182354;28;20049;-78
2021/12/30 01:25:07;;;;;;;31.67;4.72;;;14.10;99.90;;;;;;4181229;28;20083;-77
2021/12/30 01:27:09;;;;;;;33.95;4.80;;;14.10;99.90;;;;;;4182652;28;20041;-77
2021/12/30 01:29:11;;;;;;;34.50;4.60;;;14.10;99.90;;;;;;4182080;28;20049;-78
2021/12/30 01:31:13;;;;;;;31.20;5.25;;;14.10;99.90;;;;;;4180785;28;20118;-76
2021/12/30 01:33:15;;;;;;;33.92;5.97;;;14.10;99.90;;;;;;4197281;28;20048;-76
2021/12/30 01:35:23;;;;;;;38.17;4.78;;;14.10;99.90;;;;;;4185842;28;20045;-80
2021/12/30 01:37:24;;;;;;;43.95;6.85;;;14.00;99.90;;;;;;4167079;28;20080;-77
2021/12/30 01:39:28;;;;;;;40.40;5.25;;;14.10;99.90;;;;;;4164577;28;20107;-77
2021/12/30 01:41:30;;;;;;;43.58;5.88;;;14.10;99.90;;;;;;4177031;28;20566;-78
2021/12/30 01:43:35;;;;;;;41.15;6.22;;;14.00;99.90;;;;;;4185543;28;20057;-77
2021/12/30 01:45:37;;;;;;;39.60;5.95;;;14.00;99.90;;;;;;4178604;28;20053;-80
2021/12/30 01:47:47;;;;;;;41.15;4.75;;;14.00;99.90;;;;;;4166451;28;20056;-80
2021/12/30 01:49:51;;;;;;;40.95;6.07;;;14.00;99.90;;;;;;4166191;28;20049;-78
2021/12/30 01:51:54;;;;;;;42.45;6.20;;;13.90;99.90;;;;;;4172341;28;20500;-77
2021/12/30 01:53:57;;;;;;;41.35;5.75;;;13.90;99.90;;;;;;4189182;28;20540;-81
2021/12/30 01:56:00;;;;;;;34.67;5.47;;;13.90;99.90;;;;;;4184392;28;20174;-79
2021/12/30 01:58:03;;;;;;;43.85;6.50;;;13.90;99.90;;;;;;4173990;28;20048;-77
2021/12/30 02:00:09;;;;;;;44.15;6.15;;;13.90;99.90;;;;;;4181469;28;20057;-77
2021/12/30 02:02:11;;;;;;;47.15;7.10;;;13.90;99.90;;;;;;4180329;28;20057;-77
2021/12/30 02:04:13;;;;;;;43.67;5.70;;;13.90;99.90;;;;;;4175312;28;20131;-80
2021/12/30 02:06:16;;;;;;;36.08;5.22;;;13.90;99.90;;;;;;4182942;28;20840;-80
2021/12/30 02:08:19;;;;;;;39.85;5.80;;;13.90;99.90;;;;;;4180585;28;20087;-77
2021/12/30 02:10:21;;;;;;;32.35;4.97;;;13.90;99.90;;;;;;4182502;28;20476;-77
2021/12/30 02:12:23;;;;;;;44.90;6.03;;;13.90;99.90;;;;;;4180590;28;20056;-77
2021/12/30 02:14:25;;;;;;;40.58;6.30;;;13.90;99.90;;;;;;4177512;28;20128;-78
2021/12/30 02:16:27;;;;;;;44.50;5.45;;;13.80;99.90;;;;;;4180027;28;20056;-77
2021/12/30 02:18:31;;;;;;;50.08;6.18;;;13.80;99.90;;;;;;4166517;28;20060;-77
2021/12/30 02:20:54;;;;;;;42.38;6.15;;;13.80;99.90;;;;;;4179995;28;20072;-76
2021/12/30 02:22:55;;;;;;;41.97;6.15;;;13.80;99.90;;;;;;4180245;28;20072;-76
2021/12/30 02:24:59;;;;;;;45.72;5.47;;;13.80;99.90;;;;;;4180566;28;20068;-77
2021/12/30 02:27:01;;;;;;;43.38;5.50;;;13.80;99.90;;;;;;4175292;28;20072;-77
2021/12/30 02:29:03;;;;;;;36.90;5.28;;;13.70;99.90;;;;;;4158002;28;20133;-77
2021/12/30 02:31:10;;;;;;;32.92;5.38;;;13.70;99.90;;;;;;4163819;28;20046;-77
2021/12/30 02:33:13;;;;;;;38.95;5.70;;;13.70;99.90;;;;;;4163258;28;20049;-78
2021/12/30 02:35:15;;;;;;;46.88;6.32;;;13.80;99.90;;;;;;4159187;28;20120;-78
2021/12/30 02:37:19;;;;;;;45.83;6.78;;;13.80;99.90;;;;;;4179987;28;20099;-77
2021/12/30 02:39:23;;;;;;;33.42;5.35;;;13.80;99.90;;;;;;4169288;28;20062;-76
2021/12/30 02:41:27;;;;;;;38.38;5.47;;;13.70;99.90;;;;;;4180991;28;20051;-77
2021/12/30 02:43:31;;;;;;;40.63;6.30;;;13.70;99.90;;;;;;4181454;28;20057;-78
2021/12/30 02:45:33;;;;;;;46.13;6.45;;;13.70;99.90;;;;;;4181274;28;20049;-77
2021/12/30 02:47:36;;;;;;;45.40;6.80;;;13.70;99.90;;;;;;4181794;28;20072;-79
2021/12/30 02:49:40;;;;;;;32.55;5.32;;;13.60;99.90;;;;;;4172958;28;20127;-79
2021/12/30 02:51:42;;;;;;;44.33;5.50;;;13.60;99.90;;;;;;4180944;28;20099;-77
2021/12/30 02:53:44;;;;;;;39.05;5.22;;;13.60;99.90;;;;;;4165605;28;20319;-76
2021/12/30 02:55:46;;;;;;;40.10;6.32;;;13.60;99.90;;;;;;4180351;28;20496;-76
2021/12/30 02:57:48;;;;;;;35.33;5.28;;;13.60;99.90;;;;;;4179962;28;20088;-77
2021/12/30 02:59:50;;;;;;;50.15;7.15;;;13.60;99.90;;;;;;4169225;28;20099;-77
2021/12/30 03:01:52;;;;;;;33.63;5.85;;;13.60;99.90;;;;;;4179927;28;20648;-77
2021/12/30 03:03:56;;;;;;;55.00;7.10;;;13.60;99.90;;;;;;4170677;28;20085;-78
2021/12/30 03:06:01;;;;;;;31.92;4.80;;;13.60;99.90;;;;;;4172322;28;20072;-78
2021/12/30 03:08:03;;;;;;;53.20;6.20;;;13.60;99.90;;;;;;4181232;28;20075;-77
2021/12/30 03:10:12;;;;;;;38.78;5.60;;;13.60;99.90;;;;;;4183949;28;20056;-78
2021/12/30 03:12:14;;;;;;;38.35;6.03;;;13.60;99.90;;;;;;4196477;28;20662;-77
2021/12/30 03:14:22;;;;;;;41.78;6.55;;;13.60;99.90;;;;;;4196479;28;20060;-77
2021/12/30 03:16:29;;;;;;;43.63;5.28;;;13.60;99.90;;;;;;4196459;28;20489;-77
2021/12/30 03:18:32;;;;;;;34.20;5.97;;;13.60;99.90;;;;;;4187425;28;20127;-77
2021/12/30 03:20:35;;;;;;;40.22;6.78;;;13.60;99.90;;;;;;4183947;28;20057;-76
2021/12/30 03:22:41;;;;;;;42.15;5.93;;;13.50;99.90;;;;;;4179754;28;20520;-77
2021/12/30 03:24:43;;;;;;;39.70;5.40;;;13.50;99.90;;;;;;4191370;28;20055;-83
2021/12/30 03:26:45;;;;;;;40.70;5.28;;;13.50;99.90;;;;;;4197809;28;20083;-77
2021/12/30 03:28:47;;;;;;;40.28;5.47;;;13.60;99.90;;;;;;4196532;28;20131;-77
2021/12/30 03:30:51;;;;;;;36.80;5.15;;;13.50;99.90;;;;;;4196376;28;20049;-77
2021/12/30 03:32:53;;;;;;;47.70;6.63;;;13.60;99.90;;;;;;4196505;28;20616;-77
2021/12/30 03:34:55;;;;;;;33.20;5.47;;;13.60;99.90;;;;;;4193464;28;20072;-77
2021/12/30 03:36:58;;;;;;;34.00;5.00;;;13.60;99.90;;;;;;4196202;28;20158;-77
2021/12/30 03:39:01;;;;;;;30.25;5.07;;;13.60;99.90;;;;;;4191014;28;20095;-77
2021/12/30 03:41:05;;;;;;;43.20;5.30;;;13.60;99.90;;;;;;4185333;28;20046;-77
2021/12/30 03:43:07;;;;;;;38.40;5.18;;;13.60;99.90;;;;;;4180095;28;20041;-77
2021/12/30 03:45:12;;;;;;;35.95;5.30;;;13.60;99.90;;;;;;4180642;28;20123;-78
2021/12/30 03:47:17;;;;;;;36.13;4.47;;;13.60;99.90;;;;;;4179563;28;20060;-77
2021/12/30 03:49:19;;;;;;;29.10;5.55;;;13.50;99.90;;;;;;4166295;28;20053;-78
2021/12/30 03:51:24;;;;;;;35.45;5.03;;;13.50;99.90;;;;;;4192474;28;20931;-76
2021/12/30 03:53:26;;;;;;;35.40;5.80;;;13.50;99.90;;;;;;4184985;28;20706;-79
2021/12/30 03:55:32;;;;;;;31.52;4.57;;;13.40;99.90;;;;;;4184769;28;20052;-77
2021/12/30 03:57:34;;;;;;;32.30;4.70;;;13.40;99.90;;;;;;4166465;28;20141;-77
2021/12/30 03:59:36;;;;;;;33.10;5.25;;;13.40;99.90;;;;;;4173053;28;20508;-77
2021/12/30 04:01:38;;;;;;;28.67;4.20;;;13.40;99.90;;;;;;4166823;28;20049;-78
2021/12/30 04:03:40;;;;;;;29.63;4.85;;;13.40;99.90;;;;;;4166092;28;20088;-78
2021/12/30 04:05:44;;;;;;;30.60;4.20;;;13.40;99.90;;;;;;4172881;28;20045;-78
2021/12/30 04:07:47;;;;;;;40.90;6.05;;;13.40;99.90;;;;;;4165488;28;20050;-78
2021/12/30 04:09:49;;;;;;;42.67;6.35;;;13.40;99.90;;;;;;4160464;28;20053;-78
2021/12/30 04:11:50;;;;;;;33.50;5.57;;;13.40;99.90;;;;;;4178769;28;20475;-78
2021/12/30 04:13:53;;;;;;;42.78;5.07;;;13.40;99.90;;;;;;4182540;28;20049;-78
2021/12/30 04:15:56;;;;;;;35.55;5.45;;;13.40;99.90;;;;;;4182754;28;20528;-77
2021/12/30 04:17:58;;;;;;;39.55;5.43;;;13.50;99.90;;;;;;4180641;28;20064;-78
2021/12/30 04:20:00;;;;;;;30.60;5.05;;;13.50;99.90;;;;;;4188602;28;20044;-77
2021/12/30 04:22:03;;;;;;;28.77;5.38;;;13.50;99.90;;;;;;4165416;28;20045;-77
2021/12/30 04:24:05;;;;;;;33.15;5.70;;;13.50;99.90;;;;;;4182175;28;20049;-77
2021/12/30 04:26:07;;;;;;;26.23;4.32;;;13.50;99.90;;;;;;4183999;28;20044;-78
2021/12/30 04:28:09;;;;;;;34.13;6.00;;;13.50;99.90;;;;;;4200327;28;20048;-78
2021/12/30 04:30:13;;;;;;;37.00;5.32;;;13.50;99.90;;;;;;4184087;28;20045;-79
2021/12/30 04:32:15;;;;;;;36.13;4.55;;;13.50;99.90;;;;;;4173118;28;20042;-79
2021/12/30 04:34:17;;;;;;;31.98;5.15;;;13.50;99.90;;;;;;4183013;28;20076;-81
2021/12/30 04:36:19;;;;;;;33.67;5.15;;;13.50;99.90;;;;;;4198265;28;20047;-78
2021/12/30 04:38:21;;;;;;;33.55;5.40;;;13.50;99.90;;;;;;4196469;28;20045;-77
2021/12/30 04:40:23;;;;;;;35.05;5.25;;;13.50;99.90;;;;;;4171090;28;20061;-78
2021/12/30 04:42:25;;;;;;;31.35;5.88;;;13.50;99.90;;;;;;4179839;28;20481;-78
2021/12/30 04:44:30;;;;;;;42.13;5.13;;;13.50;99.90;;;;;;4193161;28;20044;-78
2021/12/30 04:46:33;;;;;;;26.50;5.68;;;13.50;99.90;;;;;;4199282;28;20048;-78
2021/12/30 04:48:35;;;;;;;37.22;5.07;;;13.50;99.90;;;;;;4198981;28;20080;-77
2021/12/30 04:50:37;;;;;;;40.45;5.05;;;13.50;99.90;;;;;;4199075;28;20064;-78
2021/12/30 04:52:40;;;;;;;35.22;5.00;;;13.50;99.90;;;;;;4189618;28;20113;-78
2021/12/30 04:54:42;;;;;;;28.58;4.57;;;13.50;99.90;;;;;;4163918;28;20103;-77
2021/12/30 04:56:45;;;;;;;34.97;5.05;;;13.60;99.90;;;;;;4181791;28;20080;-79
2021/12/30 04:58:46;;;;;;;38.05;5.47;;;13.60;99.90;;;;;;4181869;28;20048;-77
2021/12/30 05:00:48;;;;;;;36.08;4.95;;;13.60;99.90;;;;;;4178293;28;20103;-77
2021/12/30 05:04:58;;;;;;;31.55;4.18;;;13.60;99.90;;;;;;4164110;28;20100;-78
2021/12/30 05:07:00;;;;;;;43.67;5.70;;;13.60;99.90;;;;;;4190074;28;20688;-77
2021/12/30 05:09:06;;;;;;;39.08;5.10;;;13.60;99.90;;;;;;4180246;28;20079;-77
2021/12/30 05:11:09;;;;;;;35.53;5.90;;;13.60;99.90;;;;;;4181832;28;20092;-77
2021/12/30 05:13:13;;;;;;;40.47;5.57;;;13.70;99.90;;;;;;4181423;28;20045;-77
2021/12/30 05:15:15;;;;;;;37.55;5.32;;;13.70;99.90;;;;;;4178932;28;20087;-79
2021/12/30 05:17:17;;;;;;;29.85;4.47;;;13.70;99.90;;;;;;4182365;28;20084;-77
2021/12/30 05:19:19;;;;;;;33.88;4.57;;;13.70;99.90;;;;;;4182042;28;20079;-77
2021/12/30 05:21:22;;;;;;;37.30;5.18;;;13.70;99.90;;;;;;4185610;28;20573;-78
2021/12/30 05:23:24;;;;;;;26.55;4.03;;;13.70;99.90;;;;;;4184530;28;20076;-77
2021/12/30 05:25:27;;;;;;;27.40;4.07;;;13.70;99.90;;;;;;4165699;28;20101;-78
2021/12/30 05:27:29;;;;;;;27.80;4.25;;;13.70;99.90;;;;;;4182441;28;20524;-77
2021/12/30 05:29:31;;;;;;;34.22;4.88;;;13.70;99.90;;;;;;4167382;28;20046;-77
2021/12/30 05:31:33;;;;;;;29.55;4.70;;;13.70;99.90;;;;;;4178174;28;20056;-77
2021/12/30 05:33:35;;;;;;;29.00;4.68;;;13.70;99.90;;;;;;4200461;28;20626;-77
2021/12/30 05:35:37;;;;;;;34.63;5.28;;;13.70;99.90;;;;;;4217790;28;20427;-79
2021/12/30 05:37:40;;;;;;;32.60;4.50;;;13.60;99.90;;;;;;4217944;28;20052;-79
2021/12/30 05:39:43;;;;;;;37.30;6.03;;;13.60;99.90;;;;;;4192648;28;20052;-77
2021/12/30 05:41:44;;;;;;;27.13;4.20;;;13.60;99.90;;;;;;4190546;28;20552;-77
2021/12/30 05:43:46;;;;;;;43.85;4.45;;;13.60;99.90;;;;;;4198040;28;20056;-77
2021/12/30 05:45:48;;;;;;;23.55;3.80;;;13.60;99.90;;;;;;4192585;28;20037;-77
2021/12/30 05:47:51;;;;;;;33.58;5.00;;;13.50;99.90;;;;;;4214466;28;20123;-77
2021/12/30 05:49:53;;;;;;;31.67;4.38;;;13.50;99.90;;;;;;4207687;28;20412;-77
2021/12/30 05:51:55;;;;;;;31.90;4.30;;;13.50;99.90;;;;;;4214494;28;20319;-77
2021/12/30 05:53:57;;;;;;;24.75;4.07;;;13.50;99.90;;;;;;4214848;28;20471;-77
2021/12/30 05:55:59;;;;;;;30.63;4.65;;;13.50;99.90;;;;;;4197591;28;20579;-77
2021/12/30 05:58:01;;;;;;;28.52;4.30;;;13.60;99.90;;;;;;4215629;28;20082;-77
2021/12/30 06:00:05;;;;;;;28.98;3.83;;;13.70;99.90;;;;;;4215413;28;20048;-76
2021/12/30 06:02:07;;;;;;;30.05;5.10;;;13.70;99.90;;;;;;4195143;28;20065;-77
2021/12/30 06:04:09;;;;;;;22.10;4.03;;;13.70;99.90;;;;;;4189789;28;20063;-77
2021/12/30 06:06:11;;;;;;;29.98;3.85;;;13.70;99.90;;;;;;4182741;28;20080;-79
2021/12/30 06:08:14;;;;;;;28.42;4.13;;;13.70;99.90;;;;;;4179862;28;20814;-77
2021/12/30 06:10:17;;;;;;;26.17;4.32;;;13.70;99.90;;;;;;4167114;28;20064;-80
2021/12/30 06:12:19;;;;;;;31.63;4.22;;;13.70;99.90;;;;;;4167025;28;20112;-77
2021/12/30 06:14:21;;;;;;;30.48;3.97;;;13.70;99.90;;;;;;4167128;28;20080;-77
2021/12/30 06:16:23;;;;;;;25.17;5.10;;;13.70;99.90;;;;;;4214991;28;20596;-77
2021/12/30 06:18:25;;;;;;;32.20;4.47;;;13.70;99.90;;;;;;4218522;28;20463;-77
2021/12/30 06:20:28;;;;;;;35.08;5.55;;;13.70;99.90;;;;;;4209649;28;20048;-77
2021/12/30 06:22:29;;;;;;;28.65;3.70;;;13.70;99.90;;;;;;4214731;28;20044;-76
2021/12/30 06:24:32;;;;;;;27.33;4.63;;;13.70;99.90;;;;;;4214885;28;20076;-77
2021/12/30 06:26:34;;;;;;;34.55;5.00;;;13.60;99.90;;;;;;4198629;28;20052;-77
2021/12/30 06:28:36;;;;;;;26.92;4.40;;;13.60;99.90;;;;;;4212007;28;20043;-77
2021/12/30 06:30:38;;;;;;;27.65;4.32;;;13.50;99.90;;;;;;4165080;28;20084;-77
2021/12/30 06:32:40;;;;;;;31.50;4.25;;;13.40;99.90;;;;;;4170916;28;20037;-77
2021/12/30 06:34:42;;;;;;;28.45;5.20;;;13.30;99.90;;;;;;4184950;28;20067;-77
2021/12/30 06:36:43;;;;;;;33.30;4.40;;;13.30;99.90;;;;;;4183446;28;20083;-77
2021/12/30 06:38:45;;;;;;;39.03;4.72;;;13.20;99.90;;;;;;4181009;28;20049;-77
2021/12/30 06:40:52;;;;;;;28.50;4.25;;;13.20;99.90;;;;;;4206336;28;20075;-79
2021/12/30 06:42:54;;;;;;;24.98;3.80;;;13.10;99.90;;;;;;4199414;28;20048;-79
2021/12/30 06:44:56;;;;;;;33.10;4.22;;;13.10;99.90;;;;;;4206195;28;20063;-75
2021/12/30 06:47:00;;;;;;;28.77;4.07;;;13.00;99.90;;;;;;4216004;28;20044;-77
2021/12/30 06:49:09;;;;;;;39.40;4.60;;;12.90;99.90;;;;;;4216235;28;20040;-77
2021/12/30 06:51:17;;;;;;;42.40;5.05;;;12.90;99.90;;;;;;4199231;28;20044;-78
2021/12/30 06:53:23;;;;;;;34.30;4.72;;;12.90;99.90;;;;;;4203691;28;20072;-77
2021/12/30 06:55:34;;;;;;;28.73;3.97;;;12.90;99.90;;;;;;4205904;28;20389;-80
2021/12/30 06:57:36;;;;;;;30.75;4.00;;;12.90;99.90;;;;;;4218511;28;20109;-77
2021/12/30 06:59:39;;;;;;;28.42;4.60;;;12.90;99.90;;;;;;4211568;28;20051;-78
2021/12/30 07:01:43;;;;;;;29.08;4.18;;;12.90;99.90;;;;;;4200434;28;20092;-77
2021/12/30 07:03:46;;;;;;;25.60;3.58;;;12.90;99.90;;;;;;4193867;28;20106;-78
2021/12/30 07:05:48;;;;;;;30.13;3.58;;;12.90;99.90;;;;;;4178935;28;20059;-77
2021/12/30 07:07:49;;;;;;;34.80;5.20;;;12.90;99.90;;;;;;4182399;28;20087;-78
2021/12/30 07:09:51;;;;;;;29.75;4.72;;;12.90;99.90;;;;;;4171614;28;20054;-77
2021/12/30 07:11:54;;;;;;;39.95;4.78;;;12.90;99.90;;;;;;4192487;28;20511;-77
2021/12/30 07:13:56;;;;;;;37.80;4.32;;;12.90;99.90;;;;;;4200305;28;20052;-77
2021/12/30 07:15:58;;;;;;;22.02;4.10;;;13.00;99.90;;;;;;4199720;28;20772;-78
2021/12/30 07:18:00;;;;;;;24.20;3.25;;;13.00;99.90;;;;;;4200248;28;20144;-78
2021/12/30 07:20:04;;;;;;;28.08;3.25;;;13.10;99.90;;;;;;4198149;28;20076;-78
2021/12/30 07:22:06;;;;;;;21.65;3.80;;;13.20;99.90;;;;;;4172989;28;20065;-78
2021/12/30 07:24:28;;;;;;;16.42;2.92;;;13.20;99.90;;;;;;4200266;28;20136;-78
2021/12/30 07:26:30;;;;;;;17.08;3.50;;;13.30;99.90;;;;;;4201436;28;20087;-77
2021/12/30 07:28:32;;;;;;;26.98;3.78;;;13.40;99.90;;;;;;4203970;28;20051;-77
2021/12/30 07:30:35;;;;;;;17.48;2.50;;;13.40;99.90;;;;;;4196490;28;20049;-77
2021/12/30 07:32:37;;;;;;;18.85;2.92;;;13.40;99.90;;;;;;4205051;28;20056;-77
2021/12/30 07:34:39;;;;;;;19.88;4.05;;;13.50;99.90;;;;;;4201943;28;20072;-78
2021/12/30 07:36:41;;;;;;;13.65;2.90;;;13.50;99.90;;;;;;4201759;28;20053;-80
2021/12/30 07:38:43;;;;;;;21.50;3.05;;;13.60;99.90;;;;;;4190306;28;20056;-81
2021/12/30 07:40:45;;;;;;;10.25;2.92;;;13.50;99.90;;;;;;4191678;28;20049;-81
2021/12/30 07:42:47;;;;;;;15.80;2.72;;;13.60;99.90;;;;;;4173891;28;20049;-81
2021/12/30 07:44:49;;;;;;;15.18;2.83;;;13.50;99.90;;;;;;4188185;28;20052;-81
2021/12/30 07:46:51;;;;;;;17.10;2.53;;;13.50;99.90;;;;;;4206156;28;20044;-81
2021/12/30 07:48:53;;;;;;;14.65;2.90;;;13.50;99.90;;;;;;4198902;28;20052;-81
2021/12/30 07:50:55;;;;;;;17.83;2.67;;;13.40;99.90;;;;;;4195788;28;20052;-81
2021/12/30 07:52:57;;;;;;;16.92;2.72;;;13.30;99.90;;;;;;4204799;28;20044;-80
2021/12/30 07:54:59;;;;;;;18.17;2.70;;;13.40;99.90;;;;;;4194475;28;20170;-81
2021/12/30 07:57:02;;;;;;;13.55;2.15;;;13.40;99.90;;;;;;4192481;28;20107;-77
2021/12/30 07:59:03;;;;;;;15.57;2.30;;;13.40;99.90;;;;;;4182892;28;20131;-77
2021/12/30 08:01:06;;;;;;;23.90;3.00;;;13.40;99.90;;;;;;4183154;28;20138;-78
2021/12/30 08:03:08;;;;;;;15.00;2.97;;;13.40;99.90;;;;;;4182378;28;20136;-78
2021/12/30 08:05:12;;;;;;;15.90;2.30;;;13.40;99.90;;;;;;4162333;28;20049;-78
2021/12/30 08:07:21;;;;;;;20.13;3.05;;;13.40;99.90;;;;;;4166407;28;20168;-77
2021/12/30 08:09:23;;;;;;;15.73;2.65;;;13.40;99.90;;;;;;4160324;28;20539;-78
2021/12/30 08:11:26;;;;;;;14.63;2.92;;;13.40;99.90;;;;;;4154832;28;20581;-77
2021/12/30 08:13:27;;;;;;;16.38;2.72;;;13.30;99.90;;;;;;4150483;28;20137;-78
2021/12/30 08:15:30;;;;;;;14.52;2.53;;;13.40;99.90;;;;;;4169983;28;20080;-76
2021/12/30 08:17:32;;;;;;;15.55;2.33;;;13.40;99.90;;;;;;4184626;28;20044;-77
2021/12/30 08:19:34;;;;;;;19.45;2.97;;;13.40;99.90;;;;;;4183725;28;20057;-77
2021/12/30 08:21:41;;;;;;;14.63;2.45;;;13.40;99.90;;;;;;4177641;28;20049;-77
2021/12/30 08:23:43;;;;;;;14.23;2.45;;;13.30;99.90;;;;;;4167976;28;20080;-78
2021/12/30 08:25:49;;;;;;;11.48;2.60;;;13.40;99.90;;;;;;4169357;28;20069;-77
2021/12/30 08:27:51;;;;;;;19.20;3.25;;;13.40;99.90;;;;;;4171054;28;20440;-80
2021/12/30 08:29:53;;;;;;;17.70;2.50;;;13.40;99.90;;;;;;4171552;28;20045;-76
2021/12/30 08:31:55;;;;;;;20.88;3.72;;;13.50;99.90;;;;;;4179316;28;20088;-77
2021/12/30 08:33:57;;;;;;;13.70;2.65;;;13.50;99.90;;;;;;4182408;28;20064;-77
2021/12/30 08:35:59;;;;;;;18.88;2.45;;;13.50;99.90;;;;;;4182220;28;20540;-77
2021/12/30 08:38:01;;;;;;;14.70;2.67;;;13.60;99.90;;;;;;4181862;28;20061;-77
2021/12/30 08:40:05;;;;;;;18.52;2.72;;;13.60;99.90;;;;;;4174387;28;20125;-77
2021/12/30 08:42:27;;;;;;;18.40;2.53;;;13.70;99.90;;;;;;4161669;28;20520;-77
2021/12/30 08:44:30;;;;;;;23.95;3.85;;;13.70;99.90;;;;;;4154304;28;20324;-77
2021/12/30 08:46:31;;;;;;;21.73;3.38;;;13.70;99.90;;;;;;4159528;28;20046;-77
2021/12/30 08:48:34;;;;;;;19.67;3.58;;;13.70;99.90;;;;;;4167283;28;20428;-77
2021/12/30 08:50:36;;;;;;;18.00;2.65;;;13.80;99.90;;;;;;4163383;28;20124;-77
2021/12/30 08:52:39;;;;;;;16.88;3.05;;;13.80;99.90;;;;;;4149951;28;20045;-77
2021/12/30 08:54:41;;;;;;;23.15;3.33;;;13.80;99.90;;;;;;4161372;28;20733;-78
2021/12/30 08:56:43;;;;;;;19.85;3.35;;;13.80;99.90;;;;;;4165270;28;20065;-77
2021/12/30 08:58:45;;;;;;;25.67;3.13;;;13.70;99.90;;;;;;4165444;28;20729;-78
2021/12/30 09:00:47;;;;;;;19.85;3.00;;;13.70;99.90;;;;;;4163329;28;20053;-77
2021/12/30 09:02:51;;;;;;;22.70;2.80;;;13.70;99.90;;;;;;4165531;28;20056;-79
2021/12/30 09:04:53;;;;;;;16.42;2.90;;;13.70;99.90;;;;;;4158391;28;20049;-77
2021/12/30 09:06:55;;;;;;;20.00;3.67;;;13.70;99.90;;;;;;4169174;28;20135;-78
2021/12/30 09:09:01;;;;;;;25.65;2.92;;;13.70;99.90;;;;;;4181931;28;20045;-78
2021/12/30 09:11:02;;;;;;;14.43;2.63;;;13.60;99.90;;;;;;4158617;28;20072;-77
2021/12/30 09:13:04;;;;;;;21.15;3.63;;;13.70;99.90;;;;;;4171847;28;20048;-78
2021/12/30 09:15:09;;;;;;;24.45;2.95;;;13.70;99.90;;;;;;4165203;28;20100;-79
2021/12/30 09:17:11;;;;;;;18.30;3.30;;;13.70;99.90;;;;;;4165344;28;20045;-78
2021/12/30 09:19:12;;;;;;;16.55;3.13;;;13.70;99.90;;;;;;4164495;28;20050;-78
2021/12/30 09:21:14;;;;;;;18.38;3.60;;;13.70;99.90;;;;;;4177844;28;20045;-78
2021/12/30 09:23:16;;;;;;;19.20;2.58;;;13.70;99.90;;;;;;4181394;28;20053;-77
2021/12/30 09:25:22;;;;;;;17.42;3.03;;;13.70;99.90;;;;;;4178435;28;20140;-78
2021/12/30 09:27:24;;;;;;;18.83;3.28;;;13.70;99.90;;;;;;4172011;28;20441;-78
2021/12/30 09:29:26;;;;;;;13.27;2.85;;;13.70;99.90;;;;;;4164002;28;20049;-78
2021/12/30 09:31:28;;;;;;;23.90;3.72;;;13.70;99.90;;;;;;4178542;28;20040;-78
2021/12/30 09:33:30;;;;;;;23.20;2.90;;;13.70;99.90;;;;;;4181665;28;20052;-78
2021/12/30 09:35:32;;;;;;;18.90;2.95;;;13.70;99.90;;;;;;4179723;28;20049;-78
2021/12/30 09:37:34;;;;;;;17.17;2.40;;;13.80;99.90;;;;;;4181678;28;20076;-79
2021/12/30 09:39:37;;;;;;;14.63;2.85;;;13.80;99.90;;;;;;4177327;28;20534;-78
2021/12/30 09:41:43;;;;;;;19.08;3.47;;;13.90;99.90;;;;;;4168607;28;20056;-77
2021/12/30 09:43:47;;;;;;;17.25;3.67;;;14.00;99.90;;;;;;4164192;28;20578;-77
2021/12/30 09:45:50;;;;;;;17.30;3.00;;;14.00;99.90;;;;;;4148154;28;20049;-77
2021/12/30 09:47:55;;;;;;;18.48;3.38;;;14.10;99.90;;;;;;4151153;28;20038;-77
2021/12/30 09:49:57;;;;;;;21.30;2.90;;;14.20;99.90;;;;;;4170276;28;20054;-77
2021/12/30 09:51:59;;;;;;;17.40;2.70;;;14.20;99.90;;;;;;4164304;28;20057;-77
2021/12/30 09:54:01;;;;;;;20.23;3.10;;;14.30;99.90;;;;;;4164169;28;20080;-77
2021/12/30 09:56:04;;;;;;;18.23;2.80;;;14.30;99.90;;;;;;4162599;28;20083;-77
2021/12/30 09:58:07;;;;;;;19.27;3.17;;;14.30;99.90;;;;;;4180586;28;20591;-77
2021/12/30 10:00:13;;;;;;;16.10;3.40;;;14.40;99.90;;;;;;4168240;28;20083;-76
2021/12/30 10:02:14;;;;;;;19.35;3.42;;;14.40;99.90;;;;;;4131067;28;20053;-77
2021/12/30 10:04:17;;;;;;;13.45;2.55;;;14.40;99.90;;;;;;4147743;28;20045;-76
2021/12/30 10:06:19;;;;;;;20.25;3.05;;;14.50;99.90;;;;;;4160056;28;20065;-76
2021/12/30 10:08:26;;;;;;;19.27;2.65;;;14.40;99.90;;;;;;4181642;28;20040;-77
2021/12/30 10:10:35;;;;;;;23.10;3.55;;;14.50;99.90;;;;;;4172264;28;20049;-77
2021/12/30 10:12:39;;;;;;;15.15;2.85;;;14.50;99.90;;;;;;4176248;28;20053;-78
2021/12/30 10:14:42;;;;;;;19.75;2.65;;;14.60;99.90;;;;;;4196646;28;20447;-78
2021/12/30 10:16:43;;;;;;;15.00;3.20;;;14.60;99.90;;;;;;4180586;28;20041;-77
2021/12/30 10:18:48;;;;;;;19.35;2.92;;;14.60;99.90;;;;;;4180438;28;20594;-77
2021/12/30 10:20:51;;;;;;;21.70;3.20;;;14.60;99.90;;;;;;4180365;28;20056;-77
2021/12/30 10:22:56;;;;;;;20.20;3.10;;;14.60;99.90;;;;;;4179107;28;20099;-77
2021/12/30 10:24:58;;;;;;;21.38;2.78;;;14.50;99.90;;;;;;4196477;28;20052;-77
2021/12/30 10:27:01;;;;;;;17.98;2.85;;;14.50;99.90;;;;;;4196612;28;20056;-79
2021/12/30 10:29:04;;;;;;;15.88;2.90;;;14.60;99.90;;;;;;4186605;28;20170;-77
2021/12/30 10:31:12;;;;;;;17.75;2.85;;;14.60;99.90;;;;;;4163616;28;20049;-77
2021/12/30 10:33:34;;;;;;;15.68;2.63;;;14.60;99.90;;;;;;4169121;28;20080;-77
2021/12/30 10:35:36;;;;;;;17.75;3.42;;;14.70;99.90;;;;;;4196267;28;20060;-78